Mountainhome, Pennsylvania
Current Conditions -  °F | °C
As of 4:53 AM on Monday 20 Oct 2014 (Local Time) from KMPO Reporting Station
NA  
Wind Chill: 27°   Ceiling: NA
Heat Index: 32°   Visibility: 10mi
Dew Point: 27°   Wind: 5mph
Humidity: 82%   Direction: 290°WNW
Pressure: 30.03"   Gusts: NA
Location:  41.18°N, 75.26°W
Report Text: KMPO 200853Z AUTO 29004KT 10SM 00/M03 A3003 RMK AO2 SLP185 T00001028 53006 TSNO $
Loading
Personal Weather Stations






























Interactive Weather Map
Tropical Storm Tracking
New forecast layout! Learn more

10-Day Weather Forecast

Advertisements
Track Severe Weather on mobile